KJST/JST METAR and TAF weather

Enter ICAO airport designator
Station Type Date Time Source
KJST METAR 2021/03/05 06:54 UTC NOAA

KJST 050654Z AUTO 30019G26KT 10SM BKN019 M09/M13 A3000 RMK AO2 PK WND 30027/0623 SLP191 T10891133


Station Type Date Time Source
KJST Decoded METAR 2021/03/05 06:54 UTC NOAA

JOHNSTOWN-CAMBRIA CO AIRPORT , PA, United States (KJST) 40-19N 078-50W 694M
Mar 05, 2021 - 01:54 AM EST / 2021.03.05 0654 UTC
Wind: from the WNW (300 degrees) at 22 MPH (19 KT) gusting to 30 MPH (26 KT):0
Visibility: 10 mile(s):0
Sky conditions: mostly cloudy
Temperature: 16.0 F (-8.9 C)
Windchill: -2 F (-19 C):1
Dew Point: 8.1 F (-13.3 C)
Relative Humidity: 70%
Pressure (altimeter): 30 in. Hg (1015 hPa)
ob: KJST 050654Z AUTO 30019G26KT 10SM BKN019 M09/M13 A3000 RMK AO2 PK WND 30027/0623 SLP191 T10891133
cycle: 7

Station Type Date Time Source
KJST TAF 2021/03/05 07:58 UTC NOAA

TAF
AMD KJST 050656Z 0507/0606 30017G24KT P6SM BKN018
FM051300 30014G22KT P6SM SCT025
FM051600 29018G28KT P6SM SCT040

Example: see airport list